sensor_id;sensor_type;location;lat;lon;timestamp;P1;durP1;ratioP1;P2;durP2;ratioP2
34767;SDS011;21755;43.608;1.236;2024-03-17T00:01:37;8.65;;;4.55;;
34767;SDS011;21755;43.608;1.236;2024-03-17T00:04:06;7.05;;;4.20;;
34767;SDS011;21755;43.608;1.236;2024-03-17T00:06:32;10.07;;;4.75;;
34767;SDS011;21755;43.608;1.236;2024-03-17T00:08:58;11.07;;;4.93;;
34767;SDS011;21755;43.608;1.236;2024-03-17T00:11:26;9.52;;;4.93;;
34767;SDS011;21755;43.608;1.236;2024-03-17T00:13:52;7.25;;;4.28;;
34767;SDS011;21755;43.608;1.236;2024-03-17T00:16:17;8.77;;;3.97;;
34767;SDS011;21755;43.608;1.236;2024-03-17T00:18:44;10.60;;;4.53;;
34767;SDS011;21755;43.608;1.236;2024-03-17T00:21:11;9.50;;;4.63;;
34767;SDS011;21755;43.608;1.236;2024-03-17T00:23:38;8.75;;;4.40;;
34767;SDS011;21755;43.608;1.236;2024-03-17T00:26:05;8.45;;;4.18;;
34767;SDS011;21755;43.608;1.236;2024-03-17T00:28:30;8.18;;;4.15;;
34767;SDS011;21755;43.608;1.236;2024-03-17T00:30:56;8.45;;;4.03;;
34767;SDS011;21755;43.608;1.236;2024-03-17T00:33:22;7.18;;;4.22;;
34767;SDS011;21755;43.608;1.236;2024-03-17T00:35:49;10.27;;;4.68;;
34767;SDS011;21755;43.608;1.236;2024-03-17T00:38:16;6.22;;;3.85;;
34767;SDS011;21755;43.608;1.236;2024-03-17T00:40:42;8.75;;;4.43;;
34767;SDS011;21755;43.608;1.236;2024-03-17T00:43:10;6.65;;;4.25;;
34767;SDS011;21755;43.608;1.236;2024-03-17T00:45:37;10.52;;;4.07;;
34767;SDS011;21755;43.608;1.236;2024-03-17T00:48:03;8.18;;;4.47;;
34767;SDS011;21755;43.608;1.236;2024-03-17T00:50:31;7.60;;;4.55;;
34767;SDS011;21755;43.608;1.236;2024-03-17T00:52:57;7.60;;;4.20;;
34767;SDS011;21755;43.608;1.236;2024-03-17T00:55:23;6.70;;;4.30;;
34767;SDS011;21755;43.608;1.236;2024-03-17T00:57:49;9.43;;;4.38;;
34767;SDS011;21755;43.608;1.236;2024-03-17T01:00:15;8.07;;;4.22;;
34767;SDS011;21755;43.608;1.236;2024-03-17T01:02:41;10.27;;;5.03;;
34767;SDS011;21755;43.608;1.236;2024-03-17T01:05:07;9.63;;;4.38;;
34767;SDS011;21755;43.608;1.236;2024-03-17T01:07:33;9.32;;;4.63;;
34767;SDS011;21755;43.608;1.236;2024-03-17T01:09:59;8.57;;;4.28;;
34767;SDS011;21755;43.608;1.236;2024-03-17T01:12:25;6.72;;;4.07;;
34767;SDS011;21755;43.608;1.236;2024-03-17T01:14:51;10.15;;;4.20;;
34767;SDS011;21755;43.608;1.236;2024-03-17T01:17:17;8.10;;;4.05;;
34767;SDS011;21755;43.608;1.236;2024-03-17T01:19:46;11.40;;;4.65;;
34767;SDS011;21755;43.608;1.236;2024-03-17T01:22:12;11.43;;;4.57;;
34767;SDS011;21755;43.608;1.236;2024-03-17T01:24:38;7.90;;;4.45;;
34767;SDS011;21755;43.608;1.236;2024-03-17T01:27:07;7.03;;;4.45;;
34767;SDS011;21755;43.608;1.236;2024-03-17T01:29:39;9.18;;;4.05;;
34767;SDS011;21755;43.608;1.236;2024-03-17T01:32:05;7.10;;;4.05;;
34767;SDS011;21755;43.608;1.236;2024-03-17T01:34:31;10.52;;;3.63;;
34767;SDS011;21755;43.608;1.236;2024-03-17T01:36:57;7.40;;;4.28;;
34767;SDS011;21755;43.608;1.236;2024-03-17T01:39:23;6.13;;;3.67;;
34767;SDS011;21755;43.608;1.236;2024-03-17T01:41:49;6.35;;;4.13;;
34767;SDS011;21755;43.608;1.236;2024-03-17T01:44:24;8.20;;;4.20;;
34767;SDS011;21755;43.608;1.236;2024-03-17T01:46:52;9.48;;;3.80;;
34767;SDS011;21755;43.608;1.236;2024-03-17T01:49:18;10.18;;;4.28;;
34767;SDS011;21755;43.608;1.236;2024-03-17T01:51:46;7.50;;;3.97;;
34767;SDS011;21755;43.608;1.236;2024-03-17T01:54:13;7.93;;;3.72;;
34767;SDS011;21755;43.608;1.236;2024-03-17T01:56:40;12.55;;;3.78;;
34767;SDS011;21755;43.608;1.236;2024-03-17T01:59:07;3.97;;;3.25;;
34767;SDS011;21755;43.608;1.236;2024-03-17T02:01:35;9.63;;;3.80;;
34767;SDS011;21755;43.608;1.236;2024-03-17T02:04:02;6.85;;;3.88;;
34767;SDS011;21755;43.608;1.236;2024-03-17T02:06:29;8.55;;;3.75;;
34767;SDS011;21755;43.608;1.236;2024-03-17T02:08:55;8.55;;;3.97;;
34767;SDS011;21755;43.608;1.236;2024-03-17T02:11:25;6.45;;;3.58;;
34767;SDS011;21755;43.608;1.236;2024-03-17T02:13:56;4.57;;;3.40;;
34767;SDS011;21755;43.608;1.236;2024-03-17T02:16:23;5.25;;;3.55;;
34767;SDS011;21755;43.608;1.236;2024-03-17T02:18:56;5.75;;;3.70;;
34767;SDS011;21755;43.608;1.236;2024-03-17T02:21:23;10.40;;;3.65;;
34767;SDS011;21755;43.608;1.236;2024-03-17T02:23:50;8.40;;;3.40;;
34767;SDS011;21755;43.608;1.236;2024-03-17T02:26:16;6.75;;;3.67;;
34767;SDS011;21755;43.608;1.236;2024-03-17T02:28:43;7.90;;;3.33;;
34767;SDS011;21755;43.608;1.236;2024-03-17T02:31:10;6.18;;;3.00;;
34767;SDS011;21755;43.608;1.236;2024-03-17T02:33:38;11.02;;;4.03;;
34767;SDS011;21755;43.608;1.236;2024-03-17T02:36:07;10.20;;;4.18;;
34767;SDS011;21755;43.608;1.236;2024-03-17T02:38:34;9.05;;;3.72;;
34767;SDS011;21755;43.608;1.236;2024-03-17T02:41:19;8.15;;;3.90;;
34767;SDS011;21755;43.608;1.236;2024-03-17T02:43:46;9.70;;;4.60;;
34767;SDS011;21755;43.608;1.236;2024-03-17T02:46:12;8.32;;;4.10;;
34767;SDS011;21755;43.608;1.236;2024-03-17T02:48:39;8.68;;;4.38;;
34767;SDS011;21755;43.608;1.236;2024-03-17T02:51:15;9.55;;;4.03;;
34767;SDS011;21755;43.608;1.236;2024-03-17T02:53:42;7.00;;;3.58;;
34767;SDS011;21755;43.608;1.236;2024-03-17T02:56:12;9.63;;;4.00;;
34767;SDS011;21755;43.608;1.236;2024-03-17T02:58:41;5.93;;;3.60;;
34767;SDS011;21755;43.608;1.236;2024-03-17T03:01:08;5.90;;;3.45;;
34767;SDS011;21755;43.608;1.236;2024-03-17T03:03:35;8.10;;;4.57;;
34767;SDS011;21755;43.608;1.236;2024-03-17T03:06:01;5.45;;;3.15;;
34767;SDS011;21755;43.608;1.236;2024-03-17T03:08:30;9.18;;;4.20;;
34767;SDS011;21755;43.608;1.236;2024-03-17T03:10:56;5.22;;;3.38;;
34767;SDS011;21755;43.608;1.236;2024-03-17T03:13:22;6.60;;;3.75;;
34767;SDS011;21755;43.608;1.236;2024-03-17T03:15:48;8.07;;;4.28;;
34767;SDS011;21755;43.608;1.236;2024-03-17T03:18:14;7.50;;;3.80;;
34767;SDS011;21755;43.608;1.236;2024-03-17T03:20:40;7.20;;;3.58;;
34767;SDS011;21755;43.608;1.236;2024-03-17T03:23:06;6.65;;;3.58;;
34767;SDS011;21755;43.608;1.236;2024-03-17T03:25:32;5.85;;;3.72;;
34767;SDS011;21755;43.608;1.236;2024-03-17T03:27:59;7.57;;;3.55;;
34767;SDS011;21755;43.608;1.236;2024-03-17T03:30:26;6.75;;;3.65;;
34767;SDS011;21755;43.608;1.236;2024-03-17T03:32:52;7.72;;;4.38;;
34767;SDS011;21755;43.608;1.236;2024-03-17T03:35:20;10.35;;;4.05;;
34767;SDS011;21755;43.608;1.236;2024-03-17T03:37:46;6.85;;;3.88;;
34767;SDS011;21755;43.608;1.236;2024-03-17T03:40:12;7.97;;;4.18;;
34767;SDS011;21755;43.608;1.236;2024-03-17T03:42:46;10.25;;;3.45;;
34767;SDS011;21755;43.608;1.236;2024-03-17T03:45:12;6.90;;;3.47;;
34767;SDS011;21755;43.608;1.236;2024-03-17T03:47:41;9.10;;;3.85;;
34767;SDS011;21755;43.608;1.236;2024-03-17T03:50:08;12.07;;;3.90;;
34767;SDS011;21755;43.608;1.236;2024-03-17T03:52:39;6.50;;;3.53;;
34767;SDS011;21755;43.608;1.236;2024-03-17T03:55:07;14.02;;;4.38;;
34767;SDS011;21755;43.608;1.236;2024-03-17T03:57:38;11.48;;;3.70;;
34767;SDS011;21755;43.608;1.236;2024-03-17T04:00:04;6.78;;;3.83;;
34767;SDS011;21755;43.608;1.236;2024-03-17T04:02:40;5.55;;;3.75;;
34767;SDS011;21755;43.608;1.236;2024-03-17T04:05:07;6.38;;;4.15;;
34767;SDS011;21755;43.608;1.236;2024-03-17T04:07:34;6.50;;;3.47;;
34767;SDS011;21755;43.608;1.236;2024-03-17T04:10:01;8.75;;;4.22;;
34767;SDS011;21755;43.608;1.236;2024-03-17T04:12:27;6.85;;;3.83;;
34767;SDS011;21755;43.608;1.236;2024-03-17T04:14:56;10.27;;;4.18;;
34767;SDS011;21755;43.608;1.236;2024-03-17T04:17:22;7.38;;;3.63;;
34767;SDS011;21755;43.608;1.236;2024-03-17T04:19:49;9.90;;;3.80;;
34767;SDS011;21755;43.608;1.236;2024-03-17T04:22:16;8.93;;;4.00;;
34767;SDS011;21755;43.608;1.236;2024-03-17T04:24:45;8.38;;;3.95;;
34767;SDS011;21755;43.608;1.236;2024-03-17T04:27:13;8.48;;;3.78;;
34767;SDS011;21755;43.608;1.236;2024-03-17T04:29:39;7.95;;;3.58;;
34767;SDS011;21755;43.608;1.236;2024-03-17T04:32:05;7.88;;;3.97;;
34767;SDS011;21755;43.608;1.236;2024-03-17T04:34:32;7.05;;;3.40;;
34767;SDS011;21755;43.608;1.236;2024-03-17T04:36:58;9.80;;;3.40;;
34767;SDS011;21755;43.608;1.236;2024-03-17T04:39:24;6.57;;;3.72;;
34767;SDS011;21755;43.608;1.236;2024-03-17T04:41:50;10.13;;;3.50;;
34767;SDS011;21755;43.608;1.236;2024-03-17T04:44:17;7.78;;;3.72;;
34767;SDS011;21755;43.608;1.236;2024-03-17T04:46:43;8.43;;;3.88;;
34767;SDS011;21755;43.608;1.236;2024-03-17T04:49:09;8.23;;;3.40;;
34767;SDS011;21755;43.608;1.236;2024-03-17T04:51:35;8.90;;;3.45;;
34767;SDS011;21755;43.608;1.236;2024-03-17T04:54:01;8.88;;;3.90;;
34767;SDS011;21755;43.608;1.236;2024-03-17T04:56:32;3.63;;;2.95;;
34767;SDS011;21755;43.608;1.236;2024-03-17T04:58:58;7.07;;;2.75;;
34767;SDS011;21755;43.608;1.236;2024-03-17T05:01:24;6.38;;;3.22;;
34767;SDS011;21755;43.608;1.236;2024-03-17T05:03:53;6.40;;;3.00;;
34767;SDS011;21755;43.608;1.236;2024-03-17T05:06:19;7.50;;;3.05;;
34767;SDS011;21755;43.608;1.236;2024-03-17T05:08:45;7.93;;;3.40;;
34767;SDS011;21755;43.608;1.236;2024-03-17T05:11:11;5.93;;;2.67;;
34767;SDS011;21755;43.608;1.236;2024-03-17T05:13:39;8.13;;;3.30;;
34767;SDS011;21755;43.608;1.236;2024-03-17T05:16:05;6.75;;;2.90;;
34767;SDS011;21755;43.608;1.236;2024-03-17T05:18:31;8.85;;;2.97;;
34767;SDS011;21755;43.608;1.236;2024-03-17T05:21:01;5.93;;;2.88;;
34767;SDS011;21755;43.608;1.236;2024-03-17T05:23:33;6.40;;;2.80;;
34767;SDS011;21755;43.608;1.236;2024-03-17T05:26:00;7.53;;;2.72;;
34767;SDS011;21755;43.608;1.236;2024-03-17T05:28:27;4.90;;;2.85;;
34767;SDS011;21755;43.608;1.236;2024-03-17T05:30:54;7.22;;;2.90;;
34767;SDS011;21755;43.608;1.236;2024-03-17T05:33:20;10.90;;;3.25;;
34767;SDS011;21755;43.608;1.236;2024-03-17T05:35:50;5.28;;;2.67;;
34767;SDS011;21755;43.608;1.236;2024-03-17T05:38:26;5.38;;;2.85;;
34767;SDS011;21755;43.608;1.236;2024-03-17T05:40:57;9.55;;;2.75;;
34767;SDS011;21755;43.608;1.236;2024-03-17T05:43:25;7.15;;;3.40;;
34767;SDS011;21755;43.608;1.236;2024-03-17T05:45:52;8.85;;;3.78;;
34767;SDS011;21755;43.608;1.236;2024-03-17T05:48:19;6.82;;;2.78;;
34767;SDS011;21755;43.608;1.236;2024-03-17T05:50:46;7.07;;;3.05;;
34767;SDS011;21755;43.608;1.236;2024-03-17T05:53:12;6.85;;;2.83;;
34767;SDS011;21755;43.608;1.236;2024-03-17T05:55:38;6.20;;;2.88;;
34767;SDS011;21755;43.608;1.236;2024-03-17T05:58:06;6.05;;;2.78;;
34767;SDS011;21755;43.608;1.236;2024-03-17T06:00:34;6.25;;;3.00;;
34767;SDS011;21755;43.608;1.236;2024-03-17T06:03:00;7.40;;;3.00;;
34767;SDS011;21755;43.608;1.236;2024-03-17T06:05:26;7.03;;;2.60;;
34767;SDS011;21755;43.608;1.236;2024-03-17T06:07:56;6.55;;;2.10;;
34767;SDS011;21755;43.608;1.236;2024-03-17T06:10:22;3.90;;;2.40;;
34767;SDS011;21755;43.608;1.236;2024-03-17T06:12:49;5.35;;;2.40;;
34767;SDS011;21755;43.608;1.236;2024-03-17T06:15:16;9.25;;;2.30;;
34767;SDS011;21755;43.608;1.236;2024-03-17T06:17:42;6.70;;;2.67;;
34767;SDS011;21755;43.608;1.236;2024-03-17T06:20:08;9.98;;;3.15;;
34767;SDS011;21755;43.608;1.236;2024-03-17T06:22:38;8.98;;;2.92;;
34767;SDS011;21755;43.608;1.236;2024-03-17T06:25:05;5.30;;;2.60;;
34767;SDS011;21755;43.608;1.236;2024-03-17T06:27:32;4.05;;;2.28;;
34767;SDS011;21755;43.608;1.236;2024-03-17T06:30:01;7.10;;;2.65;;
34767;SDS011;21755;43.608;1.236;2024-03-17T06:32:30;4.03;;;2.63;;
34767;SDS011;21755;43.608;1.236;2024-03-17T06:34:57;6.75;;;2.40;;
34767;SDS011;21755;43.608;1.236;2024-03-17T06:37:23;8.05;;;3.17;;
34767;SDS011;21755;43.608;1.236;2024-03-17T06:39:50;6.55;;;2.42;;
34767;SDS011;21755;43.608;1.236;2024-03-17T06:42:16;4.75;;;2.45;;
34767;SDS011;21755;43.608;1.236;2024-03-17T06:44:42;6.43;;;2.63;;
34767;SDS011;21755;43.608;1.236;2024-03-17T06:47:08;10.38;;;3.15;;
34767;SDS011;21755;43.608;1.236;2024-03-17T06:49:33;4.28;;;2.28;;
34767;SDS011;21755;43.608;1.236;2024-03-17T06:51:59;10.95;;;2.72;;
34767;SDS011;21755;43.608;1.236;2024-03-17T06:54:26;4.90;;;2.83;;
34767;SDS011;21755;43.608;1.236;2024-03-17T06:56:52;5.72;;;3.33;;
34767;SDS011;21755;43.608;1.236;2024-03-17T06:59:18;5.97;;;3.10;;
34767;SDS011;21755;43.608;1.236;2024-03-17T07:01:46;6.97;;;2.83;;
34767;SDS011;21755;43.608;1.236;2024-03-17T07:04:12;6.63;;;2.80;;
34767;SDS011;21755;43.608;1.236;2024-03-17T07:06:38;6.82;;;2.95;;
34767;SDS011;21755;43.608;1.236;2024-03-17T07:09:04;6.88;;;2.50;;
34767;SDS011;21755;43.608;1.236;2024-03-17T07:11:30;6.97;;;2.97;;
34767;SDS011;21755;43.608;1.236;2024-03-17T07:13:57;6.45;;;2.55;;
34767;SDS011;21755;43.608;1.236;2024-03-17T07:16:22;7.43;;;2.92;;
34767;SDS011;21755;43.608;1.236;2024-03-17T07:18:50;6.47;;;2.28;;
34767;SDS011;21755;43.608;1.236;2024-03-17T07:21:18;7.95;;;3.38;;
34767;SDS011;21755;43.608;1.236;2024-03-17T07:23:44;7.35;;;2.72;;
34767;SDS011;21755;43.608;1.236;2024-03-17T07:26:10;7.80;;;2.55;;
34767;SDS011;21755;43.608;1.236;2024-03-17T07:28:36;10.25;;;2.55;;
34767;SDS011;21755;43.608;1.236;2024-03-17T07:31:09;6.97;;;2.10;;
34767;SDS011;21755;43.608;1.236;2024-03-17T07:33:36;7.68;;;2.60;;
34767;SDS011;21755;43.608;1.236;2024-03-17T07:36:02;6.45;;;2.13;;
34767;SDS011;21755;43.608;1.236;2024-03-17T07:38:30;5.10;;;2.00;;
34767;SDS011;21755;43.608;1.236;2024-03-17T07:40:57;4.57;;;2.13;;
34767;SDS011;21755;43.608;1.236;2024-03-17T07:43:28;4.38;;;2.05;;
34767;SDS011;21755;43.608;1.236;2024-03-17T07:45:56;6.07;;;2.00;;
34767;SDS011;21755;43.608;1.236;2024-03-17T07:48:26;3.75;;;1.52;;
34767;SDS011;21755;43.608;1.236;2024-03-17T07:50:54;5.82;;;1.92;;
34767;SDS011;21755;43.608;1.236;2024-03-17T07:53:21;8.15;;;2.08;;
34767;SDS011;21755;43.608;1.236;2024-03-17T07:55:47;6.47;;;2.15;;
34767;SDS011;21755;43.608;1.236;2024-03-17T07:58:21;5.47;;;2.38;;
34767;SDS011;21755;43.608;1.236;2024-03-17T08:00:56;8.07;;;2.40;;
34767;SDS011;21755;43.608;1.236;2024-03-17T08:03:30;7.65;;;2.40;;
34767;SDS011;21755;43.608;1.236;2024-03-17T08:06:01;6.28;;;2.10;;
34767;SDS011;21755;43.608;1.236;2024-03-17T08:08:28;7.68;;;2.10;;
34767;SDS011;21755;43.608;1.236;2024-03-17T08:10:54;5.55;;;1.65;;
34767;SDS011;21755;43.608;1.236;2024-03-17T08:13:21;6.82;;;1.60;;
34767;SDS011;21755;43.608;1.236;2024-03-17T08:15:55;3.70;;;1.80;;
34767;SDS011;21755;43.608;1.236;2024-03-17T08:18:23;7.85;;;1.98;;
34767;SDS011;21755;43.608;1.236;2024-03-17T08:20:50;9.00;;;1.85;;
34767;SDS011;21755;43.608;1.236;2024-03-17T08:23:16;9.85;;;2.17;;
34767;SDS011;21755;43.608;1.236;2024-03-17T08:25:42;5.07;;;1.60;;
34767;SDS011;21755;43.608;1.236;2024-03-17T08:28:16;6.93;;;1.70;;
34767;SDS011;21755;43.608;1.236;2024-03-17T08:30:42;5.90;;;1.73;;
34767;SDS011;21755;43.608;1.236;2024-03-17T08:33:08;7.80;;;1.58;;
34767;SDS011;21755;43.608;1.236;2024-03-17T08:35:35;7.70;;;1.92;;
34767;SDS011;21755;43.608;1.236;2024-03-17T08:38:02;6.63;;;1.50;;
34767;SDS011;21755;43.608;1.236;2024-03-17T08:40:28;4.75;;;1.60;;
34767;SDS011;21755;43.608;1.236;2024-03-17T08:42:54;8.75;;;1.75;;
34767;SDS011;21755;43.608;1.236;2024-03-17T08:45:20;5.78;;;1.95;;
34767;SDS011;21755;43.608;1.236;2024-03-17T08:47:50;3.33;;;1.63;;
34767;SDS011;21755;43.608;1.236;2024-03-17T08:50:17;9.68;;;1.58;;
34767;SDS011;21755;43.608;1.236;2024-03-17T08:52:43;8.10;;;1.67;;
34767;SDS011;21755;43.608;1.236;2024-03-17T08:55:09;4.28;;;1.95;;
34767;SDS011;21755;43.608;1.236;2024-03-17T08:57:38;5.97;;;1.70;;
34767;SDS011;21755;43.608;1.236;2024-03-17T09:00:05;6.95;;;2.03;;
34767;SDS011;21755;43.608;1.236;2024-03-17T09:02:33;3.72;;;1.25;;
34767;SDS011;21755;43.608;1.236;2024-03-17T09:04:59;6.85;;;1.70;;
34767;SDS011;21755;43.608;1.236;2024-03-17T09:07:25;10.00;;;2.08;;
34767;SDS011;21755;43.608;1.236;2024-03-17T09:09:51;2.88;;;1.42;;
34767;SDS011;21755;43.608;1.236;2024-03-17T09:12:17;10.82;;;1.85;;
34767;SDS011;21755;43.608;1.236;2024-03-17T09:14:46;9.80;;;2.38;;
34767;SDS011;21755;43.608;1.236;2024-03-17T09:17:13;11.05;;;1.98;;
34767;SDS011;21755;43.608;1.236;2024-03-17T09:19:39;11.07;;;1.88;;
34767;SDS011;21755;43.608;1.236;2024-03-17T09:22:04;8.98;;;2.22;;
34767;SDS011;21755;43.608;1.236;2024-03-17T09:24:30;6.78;;;1.90;;
34767;SDS011;21755;43.608;1.236;2024-03-17T09:26:56;5.28;;;1.50;;
34767;SDS011;21755;43.608;1.236;2024-03-17T09:29:22;6.20;;;1.85;;
34767;SDS011;21755;43.608;1.236;2024-03-17T09:31:49;5.03;;;1.30;;
34767;SDS011;21755;43.608;1.236;2024-03-17T09:34:16;3.60;;;1.30;;
34767;SDS011;21755;43.608;1.236;2024-03-17T09:36:42;5.05;;;1.45;;
34767;SDS011;21755;43.608;1.236;2024-03-17T09:39:09;5.15;;;1.63;;
34767;SDS011;21755;43.608;1.236;2024-03-17T09:41:36;5.93;;;1.80;;
34767;SDS011;21755;43.608;1.236;2024-03-17T09:44:04;6.90;;;1.55;;
34767;SDS011;21755;43.608;1.236;2024-03-17T09:46:35;4.60;;;1.30;;
34767;SDS011;21755;43.608;1.236;2024-03-17T09:49:01;3.63;;;1.13;;
34767;SDS011;21755;43.608;1.236;2024-03-17T09:51:27;8.43;;;1.67;;
34767;SDS011;21755;43.608;1.236;2024-03-17T09:53:53;8.65;;;1.98;;
34767;SDS011;21755;43.608;1.236;2024-03-17T09:56:19;7.40;;;1.80;;
34767;SDS011;21755;43.608;1.236;2024-03-17T09:58:49;7.15;;;1.52;;
34767;SDS011;21755;43.608;1.236;2024-03-17T10:01:16;6.22;;;2.08;;
34767;SDS011;21755;43.608;1.236;2024-03-17T10:03:46;10.05;;;1.58;;
34767;SDS011;21755;43.608;1.236;2024-03-17T10:06:24;5.18;;;1.55;;
34767;SDS011;21755;43.608;1.236;2024-03-17T10:08:54;7.50;;;2.20;;
34767;SDS011;21755;43.608;1.236;2024-03-17T10:11:25;3.88;;;1.50;;
34767;SDS011;21755;43.608;1.236;2024-03-17T10:14:08;8.98;;;2.33;;
34767;SDS011;21755;43.608;1.236;2024-03-17T10:16:35;6.80;;;1.85;;
34767;SDS011;21755;43.608;1.236;2024-03-17T10:21:37;5.18;;;1.70;;
34767;SDS011;21755;43.608;1.236;2024-03-17T10:24:05;6.50;;;1.55;;
34767;SDS011;21755;43.608;1.236;2024-03-17T10:31:57;5.32;;;1.60;;
34767;SDS011;21755;43.608;1.236;2024-03-17T10:34:27;8.18;;;1.83;;
34767;SDS011;21755;43.608;1.236;2024-03-17T10:39:31;5.75;;;1.90;;
34767;SDS011;21755;43.608;1.236;2024-03-17T10:42:03;6.65;;;1.95;;
34767;SDS011;21755;43.608;1.236;2024-03-17T10:44:40;6.28;;;1.80;;
34767;SDS011;21755;43.608;1.236;2024-03-17T10:47:15;4.55;;;1.70;;
34767;SDS011;21755;43.608;1.236;2024-03-17T10:49:47;6.28;;;1.90;;
34767;SDS011;21755;43.608;1.236;2024-03-17T10:52:19;11.10;;;1.93;;
34767;SDS011;21755;43.608;1.236;2024-03-17T10:54:51;6.38;;;2.65;;
34767;SDS011;21755;43.608;1.236;2024-03-17T11:00:05;6.28;;;2.03;;
34767;SDS011;21755;43.608;1.236;2024-03-17T11:02:35;5.55;;;1.33;;
34767;SDS011;21755;43.608;1.236;2024-03-17T11:05:02;6.25;;;1.85;;
34767;SDS011;21755;43.608;1.236;2024-03-17T11:07:48;5.97;;;1.83;;
34767;SDS011;21755;43.608;1.236;2024-03-17T11:10:18;5.28;;;1.58;;
34767;SDS011;21755;43.608;1.236;2024-03-17T11:12:46;4.63;;;1.60;;
34767;SDS011;21755;43.608;1.236;2024-03-17T11:20:37;6.07;;;2.03;;
34767;SDS011;21755;43.608;1.236;2024-03-17T11:23:07;7.10;;;2.35;;
34767;SDS011;21755;43.608;1.236;2024-03-17T11:25:37;8.35;;;2.13;;
34767;SDS011;21755;43.608;1.236;2024-03-17T11:28:04;3.75;;;1.52;;
34767;SDS011;21755;43.608;1.236;2024-03-17T11:41:39;4.93;;;1.75;;
34767;SDS011;21755;43.608;1.236;2024-03-17T11:47:06;4.10;;;1.48;;
34767;SDS011;21755;43.608;1.236;2024-03-17T11:49:41;4.22;;;1.50;;
34767;SDS011;21755;43.608;1.236;2024-03-17T11:52:13;4.15;;;1.60;;
34767;SDS011;21755;43.608;1.236;2024-03-17T11:54:41;3.30;;;1.42;;
34767;SDS011;21755;43.608;1.236;2024-03-17T11:57:12;6.32;;;1.77;;
34767;SDS011;21755;43.608;1.236;2024-03-17T11:59:39;5.35;;;1.80;;
34767;SDS011;21755;43.608;1.236;2024-03-17T12:04:57;6.60;;;2.63;;
34767;SDS011;21755;43.608;1.236;2024-03-17T12:07:24;9.50;;;3.22;;
34767;SDS011;21755;43.608;1.236;2024-03-17T12:09:52;4.38;;;2.50;;
34767;SDS011;21755;43.608;1.236;2024-03-17T12:12:20;3.08;;;1.38;;
34767;SDS011;21755;43.608;1.236;2024-03-17T12:14:48;3.25;;;2.03;;
34767;SDS011;21755;43.608;1.236;2024-03-17T12:17:24;3.35;;;1.70;;
34767;SDS011;21755;43.608;1.236;2024-03-17T12:19:50;2.13;;;1.48;;
34767;SDS011;21755;43.608;1.236;2024-03-17T12:22:17;4.80;;;1.60;;
34767;SDS011;21755;43.608;1.236;2024-03-17T12:24:51;6.43;;;1.40;;
34767;SDS011;21755;43.608;1.236;2024-03-17T12:27:20;4.05;;;2.15;;
34767;SDS011;21755;43.608;1.236;2024-03-17T12:29:48;8.23;;;3.30;;
34767;SDS011;21755;43.608;1.236;2024-03-17T12:32:18;5.75;;;1.90;;
34767;SDS011;21755;43.608;1.236;2024-03-17T12:34:51;5.32;;;1.58;;
34767;SDS011;21755;43.608;1.236;2024-03-17T12:37:23;6.55;;;1.83;;
34767;SDS011;21755;43.608;1.236;2024-03-17T12:39:51;2.22;;;1.42;;
34767;SDS011;21755;43.608;1.236;2024-03-17T12:42:28;2.47;;;1.20;;
34767;SDS011;21755;43.608;1.236;2024-03-17T12:44:55;6.15;;;1.98;;
34767;SDS011;21755;43.608;1.236;2024-03-17T12:47:22;4.90;;;1.73;;
34767;SDS011;21755;43.608;1.236;2024-03-17T12:49:53;2.85;;;1.83;;
34767;SDS011;21755;43.608;1.236;2024-03-17T12:52:26;3.53;;;1.80;;
34767;SDS011;21755;43.608;1.236;2024-03-17T12:55:00;5.72;;;2.00;;
34767;SDS011;21755;43.608;1.236;2024-03-17T12:57:45;3.13;;;1.67;;
34767;SDS011;21755;43.608;1.236;2024-03-17T13:00:31;4.13;;;1.52;;
34767;SDS011;21755;43.608;1.236;2024-03-17T13:03:04;2.35;;;1.45;;
34767;SDS011;21755;43.608;1.236;2024-03-17T13:05:37;7.28;;;2.15;;
34767;SDS011;21755;43.608;1.236;2024-03-17T13:08:03;5.22;;;1.92;;
34767;SDS011;21755;43.608;1.236;2024-03-17T13:10:30;3.17;;;1.73;;
34767;SDS011;21755;43.608;1.236;2024-03-17T13:13:07;3.53;;;1.88;;
34767;SDS011;21755;43.608;1.236;2024-03-17T13:15:34;4.05;;;1.55;;
34767;SDS011;21755;43.608;1.236;2024-03-17T13:18:03;4.10;;;1.80;;
34767;SDS011;21755;43.608;1.236;2024-03-17T13:20:30;7.22;;;2.28;;
34767;SDS011;21755;43.608;1.236;2024-03-17T13:22:57;4.68;;;1.58;;
34767;SDS011;21755;43.608;1.236;2024-03-17T13:25:25;6.00;;;2.00;;
34767;SDS011;21755;43.608;1.236;2024-03-17T13:27:58;4.40;;;2.00;;
34767;SDS011;21755;43.608;1.236;2024-03-17T13:30:25;2.85;;;1.70;;
34767;SDS011;21755;43.608;1.236;2024-03-17T13:32:53;6.63;;;1.77;;
34767;SDS011;21755;43.608;1.236;2024-03-17T13:35:25;5.03;;;1.90;;
34767;SDS011;21755;43.608;1.236;2024-03-17T13:37:54;3.85;;;1.92;;
34767;SDS011;21755;43.608;1.236;2024-03-17T13:40:20;6.05;;;2.05;;
34767;SDS011;21755;43.608;1.236;2024-03-17T13:42:48;2.22;;;1.42;;
34767;SDS011;21755;43.608;1.236;2024-03-17T13:45:16;3.28;;;1.80;;
34767;SDS011;21755;43.608;1.236;2024-03-17T13:47:46;3.95;;;1.73;;
34767;SDS011;21755;43.608;1.236;2024-03-17T13:50:15;4.72;;;1.73;;
34767;SDS011;21755;43.608;1.236;2024-03-17T13:52:41;4.85;;;2.08;;
34767;SDS011;21755;43.608;1.236;2024-03-17T13:55:14;2.58;;;1.80;;
34767;SDS011;21755;43.608;1.236;2024-03-17T13:57:42;3.33;;;1.98;;
34767;SDS011;21755;43.608;1.236;2024-03-17T14:00:12;7.97;;;2.03;;
34767;SDS011;21755;43.608;1.236;2024-03-17T14:02:45;4.10;;;2.15;;
34767;SDS011;21755;43.608;1.236;2024-03-17T14:05:12;5.43;;;2.05;;
34767;SDS011;21755;43.608;1.236;2024-03-17T14:07:40;4.40;;;2.13;;
34767;SDS011;21755;43.608;1.236;2024-03-17T14:10:07;4.53;;;2.05;;
34767;SDS011;21755;43.608;1.236;2024-03-17T14:12:35;3.50;;;1.90;;
34767;SDS011;21755;43.608;1.236;2024-03-17T14:15:02;4.45;;;2.20;;
34767;SDS011;21755;43.608;1.236;2024-03-17T14:17:30;4.50;;;2.35;;
34767;SDS011;21755;43.608;1.236;2024-03-17T14:19:56;5.47;;;2.00;;
34767;SDS011;21755;43.608;1.236;2024-03-17T14:22:22;8.82;;;2.78;;
34767;SDS011;21755;43.608;1.236;2024-03-17T14:24:48;3.50;;;1.85;;
34767;SDS011;21755;43.608;1.236;2024-03-17T14:27:15;6.85;;;2.63;;
34767;SDS011;21755;43.608;1.236;2024-03-17T14:29:41;6.57;;;2.13;;
34767;SDS011;21755;43.608;1.236;2024-03-17T14:32:10;7.28;;;2.30;;
34767;SDS011;21755;43.608;1.236;2024-03-17T14:34:37;5.32;;;1.80;;
34767;SDS011;21755;43.608;1.236;2024-03-17T14:37:03;5.07;;;2.33;;
34767;SDS011;21755;43.608;1.236;2024-03-17T14:39:30;6.65;;;2.33;;
34767;SDS011;21755;43.608;1.236;2024-03-17T14:41:56;4.15;;;2.20;;
34767;SDS011;21755;43.608;1.236;2024-03-17T14:44:22;4.18;;;2.25;;
34767;SDS011;21755;43.608;1.236;2024-03-17T14:46:48;4.18;;;2.30;;
34767;SDS011;21755;43.608;1.236;2024-03-17T14:49:16;5.85;;;2.20;;
34767;SDS011;21755;43.608;1.236;2024-03-17T14:51:42;6.32;;;2.50;;
34767;SDS011;21755;43.608;1.236;2024-03-17T14:54:08;3.55;;;2.10;;
34767;SDS011;21755;43.608;1.236;2024-03-17T14:56:35;7.03;;;2.45;;
34767;SDS011;21755;43.608;1.236;2024-03-17T14:59:01;5.78;;;2.25;;
34767;SDS011;21755;43.608;1.236;2024-03-17T15:01:27;3.65;;;2.30;;
34767;SDS011;21755;43.608;1.236;2024-03-17T15:03:55;3.58;;;2.08;;
34767;SDS011;21755;43.608;1.236;2024-03-17T15:06:21;5.40;;;2.25;;
34767;SDS011;21755;43.608;1.236;2024-03-17T15:08:47;3.58;;;1.98;;
34767;SDS011;21755;43.608;1.236;2024-03-17T15:11:13;3.10;;;1.70;;
34767;SDS011;21755;43.608;1.236;2024-03-17T15:13:39;5.45;;;1.92;;
34767;SDS011;21755;43.608;1.236;2024-03-17T15:16:07;4.00;;;2.20;;
34767;SDS011;21755;43.608;1.236;2024-03-17T15:18:33;4.88;;;2.17;;
34767;SDS011;21755;43.608;1.236;2024-03-17T15:21:00;4.22;;;2.58;;
34767;SDS011;21755;43.608;1.236;2024-03-17T15:23:29;4.30;;;2.10;;
34767;SDS011;21755;43.608;1.236;2024-03-17T15:26:01;4.22;;;2.25;;